createdAt,value
2023-01-21T00:01:19.518Z,100607.75
2023-01-21T00:03:46.968Z,100611.84
2023-01-21T00:06:15.120Z,100608.06
2023-01-21T00:08:42.875Z,100606.19
2023-01-21T00:11:17.087Z,100598.50
2023-01-21T00:13:44.938Z,100593.50
2023-01-21T00:16:13.162Z,100594.38
2023-01-21T00:18:41.329Z,100591.94
2023-01-21T00:21:08.975Z,100592.31
2023-01-21T00:23:36.869Z,100590.28
2023-01-21T00:26:06.174Z,100585.91
2023-01-21T00:28:35.596Z,100579.63
2023-01-21T00:31:05.243Z,100582.56
2023-01-21T00:33:32.717Z,100579.34
2023-01-21T00:36:05.701Z,100581.22
2023-01-21T00:38:33.714Z,100567.63
2023-01-21T00:41:08.237Z,100576.03
2023-01-21T00:43:35.902Z,100573.50
2023-01-21T00:46:04.023Z,100568.22
2023-01-21T00:48:32.253Z,100563.72
2023-01-21T00:51:01.085Z,100569.97
2023-01-21T00:53:29.206Z,100563.13
2023-01-21T00:56:00.234Z,100562.66
2023-01-21T00:58:28.183Z,100562.66
2023-01-21T01:01:06.604Z,100561.66
2023-01-21T01:03:34.264Z,100558.84
2023-01-21T01:06:04.662Z,100553.97
2023-01-21T01:08:32.910Z,100558.69
2023-01-21T01:11:03.446Z,100556.16
2023-01-21T01:13:31.655Z,100552.75
2023-01-21T01:16:00.220Z,100550.00
2023-01-21T01:18:28.441Z,100555.06
2023-01-21T01:20:56.687Z,100550.00
2023-01-21T01:23:24.461Z,100547.06
2023-01-21T01:25:59.223Z,100544.81
2023-01-21T01:28:26.493Z,100549.13
2023-01-21T01:30:54.416Z,100542.00
2023-01-21T01:33:22.226Z,100541.19
2023-01-21T01:35:49.904Z,100537.44
2023-01-21T01:38:17.691Z,100530.72
2023-01-21T01:40:46.103Z,100532.38
2023-01-21T01:43:22.542Z,100525.56
2023-01-21T01:45:50.521Z,100525.47
2023-01-21T01:48:27.368Z,100519.72
2023-01-21T01:50:56.097Z,100518.94
2023-01-21T01:53:30.399Z,100507.66
2023-01-21T01:55:57.648Z,100515.84
2023-01-21T01:58:24.822Z,100504.72
2023-01-21T02:00:53.002Z,100501.22
2023-01-21T02:03:38.264Z,100497.81
2023-01-21T02:06:06.833Z,100493.72
2023-01-21T02:08:34.525Z,100484.28
2023-01-21T02:11:02.835Z,100480.66
2023-01-21T02:13:31.304Z,100478.88
2023-01-21T02:16:04.573Z,100469.44
2023-01-21T02:18:38.979Z,100468.75
2023-01-21T02:21:20.836Z,100465.25
2023-01-21T02:24:17.393Z,100464.50
2023-01-21T02:27:30.703Z,100460.63
2023-01-21T02:30:22.463Z,100449.72
2023-01-21T02:33:08.832Z,100445.03
2023-01-21T02:35:53.889Z,100446.81
2023-01-21T02:38:31.601Z,100441.19
2023-01-21T02:41:01.447Z,100431.22
2023-01-21T02:43:43.061Z,100423.91
2023-01-21T02:46:13.084Z,100422.72
2023-01-21T02:48:41.785Z,100419.13
2023-01-21T02:51:08.893Z,100414.84
2023-01-21T02:53:36.357Z,100416.50
2023-01-21T02:56:09.277Z,100418.13
2023-01-21T02:58:39.906Z,100418.69
2023-01-21T03:01:27.828Z,100414.22
2023-01-21T03:04:16.415Z,100398.03
2023-01-21T03:07:00.468Z,100396.31
2023-01-21T03:09:29.081Z,100394.94
2023-01-21T03:11:56.102Z,100396.72
2023-01-21T03:15:11.581Z,100388.75
2023-01-21T03:18:09.470Z,100388.06
2023-01-21T03:20:48.781Z,100388.53
2023-01-21T03:23:18.573Z,100376.25
2023-01-21T03:25:45.710Z,100380.66
2023-01-21T03:28:14.593Z,100371.41
2023-01-21T03:30:43.412Z,100375.78
2023-01-21T03:33:10.701Z,100370.94
2023-01-21T03:35:41.255Z,100371.56
2023-01-21T03:38:17.940Z,100372.38
2023-01-21T03:40:53.655Z,100364.78
2023-01-21T03:43:21.117Z,100355.53
2023-01-21T03:45:54.993Z,100363.91
2023-01-21T03:48:43.653Z,100353.78
2023-01-21T03:51:16.077Z,100359.50
2023-01-21T03:53:43.207Z,100355.22
2023-01-21T03:56:28.895Z,100359.50
2023-01-21T03:58:56.543Z,100356.38
2023-01-21T04:01:24.330Z,100357.94
2023-01-21T04:03:52.164Z,100353.09
2023-01-21T04:06:20.655Z,100346.47
2023-01-21T04:08:48.848Z,100346.69
2023-01-21T04:11:17.143Z,100350.78
2023-01-21T04:13:47.153Z,100352.41
2023-01-21T04:16:15.257Z,100350.97
2023-01-21T04:18:43.541Z,100355.34
2023-01-21T04:21:11.123Z,100359.63
2023-01-21T04:23:39.250Z,100366.72
2023-01-21T04:26:07.708Z,100361.84
2023-01-21T04:28:35.860Z,100355.22
2023-01-21T04:31:03.437Z,100356.22
2023-01-21T04:33:31.482Z,100361.44
2023-01-21T04:35:59.700Z,100359.72
2023-01-21T04:38:28.197Z,100352.88
2023-01-21T04:40:59.635Z,100357.38
2023-01-21T04:43:27.656Z,100357.28
2023-01-21T04:45:55.936Z,100352.31
2023-01-21T04:48:23.919Z,100361.88
2023-01-21T04:50:52.435Z,100361.09
2023-01-21T04:53:20.440Z,100355.91
2023-01-21T04:55:48.500Z,100355.91
2023-01-21T04:58:16.734Z,100361.88
2023-01-21T05:00:44.739Z,100368.69
2023-01-21T05:03:12.651Z,100364.50
2023-01-21T05:05:41.070Z,100375.09
2023-01-21T05:08:10.171Z,100371.41
2023-01-21T05:10:37.831Z,100372.06
2023-01-21T05:13:05.792Z,100370.78
2023-01-21T05:15:33.930Z,100367.94
2023-01-21T05:18:01.678Z,100372.41
2023-01-21T05:20:29.254Z,100370.66
2023-01-21T05:22:58.111Z,100376.56
2023-01-21T05:25:26.195Z,100372.09
2023-01-21T05:27:54.287Z,100379.84
2023-01-21T05:30:23.020Z,100375.34
2023-01-21T05:32:52.239Z,100378.84
2023-01-21T05:35:42.856Z,100377.13
2023-01-21T05:38:10.829Z,100380.63
2023-01-21T05:40:38.567Z,100379.28
2023-01-21T05:43:06.233Z,100371.69
2023-01-21T05:45:34.328Z,100381.56
2023-01-21T05:48:02.178Z,100380.88
2023-01-21T05:50:32.315Z,100385.56
2023-01-21T05:52:59.868Z,100390.03
2023-01-21T05:55:27.936Z,100390.25
2023-01-21T05:57:56.190Z,100386.19
2023-01-21T06:00:24.315Z,100391.44
2023-01-21T06:02:52.339Z,100394.38
2023-01-21T06:05:20.595Z,100390.25
2023-01-21T06:07:48.753Z,100388.00
2023-01-21T06:10:17.475Z,100403.19
2023-01-21T06:12:45.728Z,100394.13
2023-01-21T06:15:14.033Z,100392.56
2023-01-21T06:17:49.316Z,100402.63
2023-01-21T06:20:18.033Z,100404.81
2023-01-21T06:22:45.958Z,100401.47
2023-01-21T06:25:13.962Z,100406.22
2023-01-21T06:27:42.171Z,100409.22
2023-01-21T06:30:12.710Z,100412.13
2023-01-21T06:32:40.558Z,100417.22
2023-01-21T06:35:10.498Z,100413.38
2023-01-21T06:37:39.877Z,100414.34
2023-01-21T06:40:11.530Z,100418.75
2023-01-21T06:42:39.553Z,100424.91
2023-01-21T06:45:09.743Z,100424.25
2023-01-21T06:47:39.986Z,100428.63
2023-01-21T06:50:10.154Z,100431.94
2023-01-21T06:52:42.835Z,100434.25
2023-01-21T06:55:10.879Z,100440.28
2023-01-21T06:57:38.479Z,100441.28
2023-01-21T07:00:06.297Z,100442.63
2023-01-21T07:02:34.578Z,100444.25
2023-01-21T07:05:02.779Z,100449.31
2023-01-21T07:07:30.857Z,100452.63
2023-01-21T07:10:00.450Z,100458.13
2023-01-21T07:12:28.062Z,100455.16
2023-01-21T07:14:56.239Z,100463.31
2023-01-21T07:17:23.763Z,100465.28
2023-01-21T07:19:52.215Z,100468.34
2023-01-21T07:22:19.677Z,100472.19
2023-01-21T07:24:47.801Z,100477.66
2023-01-21T07:27:16.258Z,100474.38
2023-01-21T07:29:43.850Z,100474.78
2023-01-21T07:32:12.151Z,100471.59
2023-01-21T07:34:40.328Z,100469.59
2023-01-21T07:37:08.561Z,100467.69
2023-01-21T07:39:36.594Z,100475.13
2023-01-21T07:42:04.877Z,100474.34
2023-01-21T07:44:34.160Z,100465.63
2023-01-21T07:47:05.489Z,100466.22
2023-01-21T07:49:33.069Z,100479.91
2023-01-21T07:52:00.617Z,100480.31
2023-01-21T07:54:29.133Z,100477.63
2023-01-21T07:56:57.157Z,100483.50
2023-01-21T07:59:25.268Z,100485.16
2023-01-21T08:01:53.043Z,100491.13
2023-01-21T08:04:22.096Z,100497.38
2023-01-21T08:06:51.117Z,100491.63
2023-01-21T08:09:19.063Z,100486.25
2023-01-21T08:11:47.302Z,100490.75
2023-01-21T08:14:15.497Z,100495.81
2023-01-21T08:16:43.053Z,100496.38
2023-01-21T08:19:13.053Z,100489.47
2023-01-21T08:21:41.950Z,100492.41
2023-01-21T08:24:10.690Z,100489.41
2023-01-21T08:26:38.793Z,100489.91
2023-01-21T08:29:06.388Z,100505.22
2023-01-21T08:31:35.195Z,100506.78
2023-01-21T08:34:03.462Z,100505.22
2023-01-21T08:36:31.357Z,100508.72
2023-01-21T08:38:59.353Z,100510.28
2023-01-21T08:41:26.906Z,100517.09
2023-01-21T08:43:54.911Z,100518.19
2023-01-21T08:46:22.859Z,100521.88
2023-01-21T08:48:51.186Z,100519.66
2023-01-21T08:51:19.138Z,100519.34
2023-01-21T08:53:48.868Z,100519.38
2023-01-21T08:56:17.126Z,100521.00
2023-01-21T08:58:44.896Z,100534.56
2023-01-21T09:01:14.112Z,100534.34
2023-01-21T09:03:41.933Z,100538.03
2023-01-21T09:06:11.300Z,100536.28
2023-01-21T09:08:39.396Z,100522.13
2023-01-21T09:11:09.333Z,100541.84
2023-01-21T09:13:38.802Z,100533.03
2023-01-21T09:16:36.431Z,100536.81
2023-01-21T09:19:04.113Z,100539.63
2023-01-21T09:21:31.879Z,100540.06
2023-01-21T09:24:00.228Z,100533.50
2023-01-21T09:26:28.333Z,100540.47
2023-01-21T09:28:57.204Z,100538.34
2023-01-21T09:31:29.280Z,100533.81
2023-01-21T09:34:20.201Z,100539.47
2023-01-21T09:36:48.309Z,100534.53
2023-01-21T09:39:16.450Z,100537.09
2023-01-21T09:41:49.945Z,100530.81
2023-01-21T09:44:26.321Z,100531.47
2023-01-21T09:47:17.064Z,100522.78
2023-01-21T09:50:06.128Z,100522.63
2023-01-21T09:52:46.410Z,100523.78
2023-01-21T09:55:18.601Z,100516.22
2023-01-21T09:58:07.519Z,100509.41
2023-01-21T10:00:36.397Z,100510.94
2023-01-21T10:03:09.047Z,100509.97
2023-01-21T10:06:00.467Z,100507.91
2023-01-21T10:08:48.540Z,100506.91
2023-01-21T10:11:26.417Z,100500.78
2023-01-21T10:14:14.785Z,100504.63
2023-01-21T10:16:44.788Z,100499.16
2023-01-21T10:19:19.876Z,100491.06
2023-01-21T10:21:50.960Z,100490.72
2023-01-21T10:24:24.447Z,100489.25
2023-01-21T10:26:53.317Z,100482.63
2023-01-21T10:29:23.317Z,100488.13
2023-01-21T10:32:02.986Z,100475.22
2023-01-21T10:34:34.571Z,100470.66
2023-01-21T10:37:32.787Z,100460.94
2023-01-21T10:40:05.309Z,100460.47
2023-01-21T10:42:57.132Z,100462.34
2023-01-21T10:45:38.769Z,100456.59
2023-01-21T10:48:32.994Z,100454.38
2023-01-21T10:51:29.797Z,100454.56
2023-01-21T10:54:03.431Z,100447.13
2023-01-21T10:56:57.958Z,100446.50
2023-01-21T10:59:28.279Z,100445.38
2023-01-21T11:02:18.336Z,100433.88
2023-01-21T11:04:51.674Z,100440.19
2023-01-21T11:07:20.102Z,100435.72
2023-01-21T11:09:48.053Z,100437.78
2023-01-21T11:12:19.924Z,100436.56
2023-01-21T11:15:15.123Z,100430.06
2023-01-21T11:17:42.737Z,100420.47
2023-01-21T11:20:22.022Z,100422.53
2023-01-21T11:22:49.464Z,100409.31
2023-01-21T11:25:27.191Z,100410.72
2023-01-21T11:27:55.158Z,100409.47
2023-01-21T11:30:49.697Z,100404.75
2023-01-21T11:33:23.938Z,100404.44
2023-01-21T11:35:52.353Z,100394.56
2023-01-21T11:38:34.646Z,100398.34
2023-01-21T11:41:21.212Z,100392.44
2023-01-21T11:43:51.063Z,100391.22
2023-01-21T11:46:42.704Z,100381.41
2023-01-21T11:49:09.625Z,100378.41
2023-01-21T11:51:38.848Z,100368.31
2023-01-21T11:54:20.647Z,100364.09
2023-01-21T11:57:00.634Z,100367.56
2023-01-21T11:59:36.599Z,100374.00
2023-01-21T12:02:27.771Z,100354.28
2023-01-21T12:04:58.313Z,100358.59
2023-01-21T12:07:29.844Z,100349.72
2023-01-21T12:10:08.413Z,100347.47
2023-01-21T12:12:35.343Z,100351.88
2023-01-21T12:15:11.556Z,100343.78
2023-01-21T12:18:26.589Z,100344.81
2023-01-21T12:21:14.717Z,100340.09
2023-01-21T12:23:41.742Z,100339.44
2023-01-21T12:26:31.037Z,100338.03
2023-01-21T12:29:21.738Z,100337.25
2023-01-21T12:31:57.411Z,100333.69
2023-01-21T12:34:24.498Z,100334.44
2023-01-21T12:37:16.888Z,100333.25
2023-01-21T12:39:44.504Z,100327.03
2023-01-21T12:42:17.274Z,100333.19
2023-01-21T12:45:14.497Z,100326.41
2023-01-21T12:48:04.498Z,100331.81
2023-01-21T12:50:31.294Z,100335.88
2023-01-21T12:53:10.163Z,100325.38
2023-01-21T12:56:01.895Z,100329.97
2023-01-21T12:58:33.401Z,100322.75
2023-01-21T13:01:07.311Z,100319.56
2023-01-21T13:03:53.535Z,100325.16
2023-01-21T13:06:47.228Z,100327.06
2023-01-21T13:09:22.671Z,100327.78
2023-01-21T13:11:55.208Z,100337.94
2023-01-21T13:15:11.892Z,100335.44
2023-01-21T13:17:39.788Z,100332.97
2023-01-21T13:20:20.898Z,100338.06
2023-01-21T13:23:03.263Z,100338.56
2023-01-21T13:25:48.668Z,100344.91
2023-01-21T13:28:22.381Z,100350.63
2023-01-21T13:31:34.688Z,100352.97
2023-01-21T13:34:26.446Z,100349.72
2023-01-21T13:37:10.849Z,100357.31
2023-01-21T13:39:52.722Z,100355.88
2023-01-21T13:42:37.635Z,100354.91
2023-01-21T13:45:29.853Z,100356.25
2023-01-21T13:48:23.140Z,100361.75
2023-01-21T13:50:59.164Z,100366.53
2023-01-21T13:53:42.231Z,100366.16
2023-01-21T13:56:17.882Z,100367.94
2023-01-21T13:59:08.499Z,100368.75
2023-01-21T14:01:45.744Z,100375.16
2023-01-21T14:04:44.439Z,100373.66
2023-01-21T14:07:16.758Z,100379.97
2023-01-21T14:10:04.620Z,100381.97
2023-01-21T14:12:50.220Z,100385.91
2023-01-21T14:15:30.223Z,100380.38
2023-01-21T14:18:32.692Z,100385.84
2023-01-21T14:21:11.946Z,100384.94
2023-01-21T14:23:47.339Z,100394.13
2023-01-21T14:26:20.033Z,100405.19
2023-01-21T14:29:12.673Z,100402.34
2023-01-21T14:31:44.949Z,100409.31
2023-01-21T14:34:40.182Z,100409.59
2023-01-21T14:37:11.248Z,100414.91
2023-01-21T14:40:12.128Z,100416.06
2023-01-21T14:42:50.224Z,100417.94
2023-01-21T14:45:20.407Z,100417.72
2023-01-21T14:47:49.020Z,100425.94
2023-01-21T14:50:51.868Z,100432.44
2023-01-21T14:53:49.262Z,100439.56
2023-01-21T14:56:24.096Z,100437.25
2023-01-21T14:59:08.258Z,100447.03
2023-01-21T15:01:39.824Z,100458.78
2023-01-21T15:04:20.937Z,100468.97
2023-01-21T15:06:48.737Z,100466.47
2023-01-21T15:09:25.625Z,100470.19
2023-01-21T15:11:56.539Z,100459.53
2023-01-21T15:14:25.794Z,100469.59
2023-01-21T15:16:53.914Z,100468.38
2023-01-21T15:19:26.527Z,100477.47
2023-01-21T15:21:59.910Z,100483.91
2023-01-21T15:24:30.082Z,100492.81
2023-01-21T15:27:17.006Z,100488.50
2023-01-21T15:29:59.033Z,100501.81
2023-01-21T15:32:41.618Z,100501.56
2023-01-21T15:35:31.108Z,100503.38
2023-01-21T15:38:40.510Z,100510.13
2023-01-21T15:41:13.071Z,100510.31
2023-01-21T15:43:55.202Z,100517.59
2023-01-21T15:46:43.703Z,100523.22
2023-01-21T15:49:28.882Z,100517.22
2023-01-21T15:51:56.006Z,100518.28
2023-01-21T15:54:38.175Z,100519.47
2023-01-21T15:57:33.110Z,100519.66
2023-01-21T16:00:23.986Z,100523.13
2023-01-21T16:03:12.589Z,100526.09
2023-01-21T16:06:02.761Z,100531.03
2023-01-21T16:08:35.355Z,100528.22
2023-01-21T16:11:08.075Z,100528.72
2023-01-21T16:13:47.178Z,100546.38
2023-01-21T16:16:43.897Z,100545.38
2023-01-21T16:19:12.809Z,100542.34
2023-01-21T16:21:41.400Z,100543.09
2023-01-21T16:24:14.564Z,100539.78
2023-01-21T16:26:42.845Z,100546.41
2023-01-21T16:29:13.218Z,100544.63
2023-01-21T16:31:59.696Z,100544.88
2023-01-21T16:34:42.528Z,100549.72
2023-01-21T16:37:15.249Z,100549.31
2023-01-21T16:39:42.222Z,100550.00
2023-01-21T16:42:20.984Z,100548.88
2023-01-21T16:44:48.451Z,100544.34
2023-01-21T16:47:44.105Z,100539.91
2023-01-21T16:50:22.184Z,100555.84
2023-01-21T16:52:49.774Z,100553.06
2023-01-21T16:55:22.734Z,100553.50
2023-01-21T16:57:50.663Z,100550.50
2023-01-21T17:00:31.722Z,100554.03
2023-01-21T17:03:23.172Z,100558.81
2023-01-21T17:05:50.979Z,100555.19
2023-01-21T17:08:19.434Z,100560.31
2023-01-21T17:11:00.806Z,100567.00
2023-01-21T17:13:28.871Z,100561.91
2023-01-21T17:16:00.213Z,100562.03
2023-01-21T17:18:34.887Z,100562.19
2023-01-21T17:21:04.929Z,100570.22
2023-01-21T17:23:34.542Z,100566.00
2023-01-21T17:26:24.365Z,100566.16
2023-01-21T17:28:58.528Z,100570.44
2023-01-21T17:31:42.690Z,100574.75
2023-01-21T17:34:16.637Z,100577.44
2023-01-21T17:36:45.793Z,100585.09
2023-01-21T17:39:14.144Z,100588.19
2023-01-21T17:41:46.392Z,100592.84
2023-01-21T17:44:21.715Z,100596.91
2023-01-21T17:46:50.007Z,100595.16
2023-01-21T17:49:24.928Z,100593.56
2023-01-21T17:51:54.450Z,100597.94
2023-01-21T17:54:41.884Z,100594.72
2023-01-21T17:57:48.789Z,100587.94
2023-01-21T18:00:29.254Z,100590.50
2023-01-21T18:02:57.775Z,100592.66
2023-01-21T18:05:25.393Z,100596.78
2023-01-21T18:07:53.841Z,100600.25
2023-01-21T18:10:23.623Z,100606.34
2023-01-21T18:12:50.788Z,100609.47
2023-01-21T18:15:20.569Z,100622.13
2023-01-21T18:17:53.728Z,100617.84
2023-01-21T18:20:22.656Z,100618.31
2023-01-21T18:22:51.254Z,100623.78
2023-01-21T18:25:19.287Z,100634.06
2023-01-21T18:27:47.622Z,100636.25
2023-01-21T18:30:53.103Z,100634.16
2023-01-21T18:33:20.782Z,100638.88
2023-01-21T18:35:48.646Z,100636.53
2023-01-21T18:38:27.608Z,100635.34
2023-01-21T18:40:55.730Z,100643.22
2023-01-21T18:43:25.540Z,100642.91
2023-01-21T18:45:54.615Z,100647.69
2023-01-21T18:48:23.888Z,100654.31
2023-01-21T18:50:51.910Z,100645.56
2023-01-21T18:53:19.410Z,100646.44
2023-01-21T18:55:49.055Z,100649.06
2023-01-21T18:58:16.550Z,100641.34
2023-01-21T19:00:44.604Z,100646.25
2023-01-21T19:03:15.886Z,100647.47
2023-01-21T19:05:43.733Z,100647.63
2023-01-21T19:08:16.866Z,100647.47
2023-01-21T19:10:50.154Z,100654.81
2023-01-21T19:13:18.035Z,100654.34
2023-01-21T19:15:46.618Z,100651.31
2023-01-21T19:18:14.579Z,100654.31
2023-01-21T19:20:44.450Z,100658.47
2023-01-21T19:23:41.180Z,100660.91
2023-01-21T19:26:08.642Z,100658.53
2023-01-21T19:28:36.360Z,100667.84
2023-01-21T19:31:04.570Z,100666.97
2023-01-21T19:33:32.283Z,100673.84
2023-01-21T19:36:11.505Z,100682.38
2023-01-21T19:38:39.445Z,100679.81
2023-01-21T19:41:07.750Z,100683.16
2023-01-21T19:43:35.633Z,100696.47
2023-01-21T19:46:03.853Z,100704.81
2023-01-21T19:48:31.463Z,100703.88
2023-01-21T19:50:59.363Z,100716.63
2023-01-21T19:53:27.557Z,100721.03
2023-01-21T19:55:54.784Z,100730.66
2023-01-21T19:58:24.012Z,100719.66
2023-01-21T20:00:52.782Z,100734.44
2023-01-21T20:03:22.437Z,100731.16
2023-01-21T20:05:52.125Z,100735.38
2023-01-21T20:08:21.804Z,100731.88
2023-01-21T20:10:48.971Z,100738.47
2023-01-21T20:13:17.958Z,100751.38
2023-01-21T20:15:46.327Z,100752.09
2023-01-21T20:18:25.115Z,100752.50
2023-01-21T20:20:52.718Z,100751.28
2023-01-21T20:23:20.710Z,100757.09
2023-01-21T20:25:51.118Z,100762.19
2023-01-21T20:28:22.506Z,100760.25
2023-01-21T20:30:51.057Z,100760.13
2023-01-21T20:33:20.135Z,100761.69
2023-01-21T20:35:47.831Z,100760.13
2023-01-21T20:38:15.224Z,100761.84
2023-01-21T20:40:43.450Z,100758.19
2023-01-21T20:43:11.431Z,100766.38
2023-01-21T20:45:42.090Z,100768.06
2023-01-21T20:48:14.663Z,100767.09
2023-01-21T20:50:42.743Z,100777.97
2023-01-21T20:53:12.228Z,100776.59
2023-01-21T20:55:39.995Z,100773.00
2023-01-21T20:58:07.926Z,100770.44
2023-01-21T21:00:36.216Z,100767.91
2023-01-21T21:03:04.634Z,100764.91
2023-01-21T21:05:32.640Z,100764.72
2023-01-21T21:08:00.584Z,100769.66
2023-01-21T21:10:39.068Z,100761.78
2023-01-21T21:13:06.865Z,100770.56
2023-01-21T21:15:34.648Z,100773.47
2023-01-21T21:18:03.237Z,100774.56
2023-01-21T21:20:35.322Z,100774.78
2023-01-21T21:23:03.434Z,100772.47
2023-01-21T21:25:38.727Z,100775.22
2023-01-21T21:28:06.086Z,100791.56
2023-01-21T21:30:33.753Z,100786.47
2023-01-21T21:33:01.401Z,100792.88
2023-01-21T21:35:36.503Z,100785.63
2023-01-21T21:38:26.112Z,100791.25
2023-01-21T21:40:53.844Z,100791.25
2023-01-21T21:43:35.715Z,100791.97
2023-01-21T21:46:28.703Z,100802.41
2023-01-21T21:49:02.071Z,100799.94
2023-01-21T21:51:31.734Z,100792.09
2023-01-21T21:53:59.737Z,100801.34
2023-01-21T21:56:27.875Z,100803.97
2023-01-21T21:58:55.748Z,100802.50
2023-01-21T22:01:29.521Z,100802.50
2023-01-21T22:04:01.033Z,100801.69
2023-01-21T22:06:34.485Z,100800.28
2023-01-21T22:09:02.553Z,100798.66
2023-01-21T22:11:33.661Z,100813.75
2023-01-21T22:14:04.119Z,100810.47
2023-01-21T22:16:32.571Z,100814.09
2023-01-21T22:19:00.364Z,100818.41
2023-01-21T22:21:34.488Z,100814.44
2023-01-21T22:24:02.467Z,100818.84
2023-01-21T22:26:29.984Z,100824.09
2023-01-21T22:28:58.665Z,100814.16
2023-01-21T22:31:28.274Z,100815.03
2023-01-21T22:33:57.319Z,100823.13
2023-01-21T22:36:26.175Z,100824.81
2023-01-21T22:38:54.140Z,100826.56
2023-01-21T22:41:23.334Z,100819.09
2023-01-21T22:43:51.173Z,100819.25
2023-01-21T22:46:21.287Z,100820.16
2023-01-21T22:48:48.671Z,100816.88
2023-01-21T22:51:16.835Z,100818.47
2023-01-21T22:53:45.273Z,100828.66
2023-01-21T22:56:50.852Z,100825.41
2023-01-21T22:59:19.210Z,100819.66
2023-01-21T23:01:48.742Z,100815.44
2023-01-21T23:04:17.720Z,100822.66
2023-01-21T23:06:45.803Z,100819.28
2023-01-21T23:09:16.553Z,100827.31
2023-01-21T23:11:45.099Z,100812.78
2023-01-21T23:14:13.108Z,100817.78
2023-01-21T23:16:40.890Z,100822.09
2023-01-21T23:19:09.027Z,100820.88
2023-01-21T23:21:38.513Z,100813.31
2023-01-21T23:24:08.067Z,100817.31
2023-01-21T23:26:38.599Z,100822.31
2023-01-21T23:29:06.312Z,100818.63
2023-01-21T23:31:34.400Z,100824.63
2023-01-21T23:34:03.304Z,100817.50
2023-01-21T23:36:30.991Z,100821.72
2023-01-21T23:38:59.087Z,100824.97
2023-01-21T23:41:26.936Z,100822.25
2023-01-21T23:43:55.136Z,100824.81
2023-01-21T23:46:22.898Z,100831.22
2023-01-21T23:48:50.550Z,100826.75
2023-01-21T23:51:18.847Z,100829.38
2023-01-21T23:53:49.977Z,100824.28
2023-01-21T23:56:20.295Z,100822.06
2023-01-21T23:58:48.050Z,100822.59
